Accueil
METAR-TAF:

METAR-TAF

Aéroports :

Hawarden, Pays de Galles

latitude: 53-10N, longitude: 002-59W, altitude: 10 m

Observation

Le bulletin a été fait il y a 3 heures et 2 minutes, à 21:20 UTC
Vent 4 kt de ouest/nord-ouest, variant entre ouest/sud-ouest et nord/nord-ouest
Température 9°C
Humidité 61%
Pression 1035 hPa
Visibilité 10 km ou plus
Nuages fragmentés à une hauteur de 4000 ft

METAR: EGNR 262120Z 30004KT 250V340 9999 BKN040 09/02 Q1035

Heure: 00:22 (00:22 UTC)

Prévision

Le bulletin a été fait il y a 3 heures et 54 minutes, à 20:28 UTC
Prévision valable du 26 à 20 UTC au 26 à 22 UTC
Vent 5 kt de ouest/nord-ouest
Visibilité 10 km ou plus
Nuages épars à une hauteur de 4500 ft

TAF: EGNR 262028Z 2620/2622 29005KT 9999 SCT045

Observations et prévisions météorologiques de plus de 4000 aéroports (messages METAR et TAF).

Les stations disponibles sont représentées par des disques jaunes et rouges sur la carte.

Passer la souris dessus pour voir le nom de la station.

Cliquer dessus pour voir les observations et prévisions météorologiques.

Pour changer de carte: cliquez sur les boutons verts avec une croix noire pour zoomer, sur le bouton vert avec un tiret pour effectuer un zoom arrière, ou sur les flèches vertes pour les cartes adjacentes.


METAR-TAF: